Latest Weather Observations for Mount Keith

IDW60801

Issued at 3:05 pm WST Tuesday 16 September 2014 (issued every 30 minutes, with the page automatically refreshed every 10 minutes)

About weather observations | Map of weather stations | Latest weather observations for WA | Other Formats
Station Details ID: 512019 Name: MOUNT KEITH Lat: -27.29 Lon: 120.55 Height: 542.33 m
Data from the previous 72 hours. | See also: Recent months for locations in Western Australia
Date/Time
WST
Temp
°C
App
Temp
°C
Dew
Point
Rel
Hum
%
Delta-T
°C
Wind Press
QNH
hPa
Press
MSL
hPa
Rain
since 9 am
mm
Dir
 
Spd
km/h
Gust
km/h
Spd
kts
Gust
kts
16/03:00pm 27.6 20.9 1.2 18 13.0 E 26 33 14 18 1014.5 1012.8 0.0
16/02:30pm 27.6 21.1 0.4 17 13.2 E 24 39 13 21 1014.9 1013.2 0.0
16/02:00pm 27.3 21.3 0.9 18 12.9 E 22 37 12 20 1014.9 1013.2 0.0
16/01:30pm 26.5 19.7 1.0 19 12.4 ESE 26 35 14 19 1015.4 1013.7 0.0
16/01:00pm 26.7 19.6 1.2 19 12.5 ENE 28 41 15 22 1015.5 1013.8 0.0
16/12:30pm 26.0 18.4 0.6 19 12.2 E 30 37 16 20 1015.9 1014.2 0.0
16/12:00pm 26.5 19.3 1.0 19 12.4 E 28 41 15 22 1016.2 1014.5 0.0
16/11:30am 25.7 19.3 1.1 20 11.9 E 24 35 13 19 1016.9 1015.3 0.0
16/11:00am 23.9 17.1 0.9 22 11.0 E 26 41 14 22 1017.7 1016.0 0.0
16/10:30am 23.6 17.6 1.3 23 10.7 ENE 22 30 12 16 1018.2 1016.5 0.0
16/10:00am 22.2 15.9 1.3 25 9.9 E 24 33 13 18 1018.6 1017.0 0.0
16/09:30am 22.3 16.3 1.3 25 10.0 E 22 32 12 17 1018.7 1017.1 0.0
16/09:00am 21.4 15.0 1.1 26 9.5 E 24 35 13 19 1019.0 1017.3 0.0
16/08:30am 20.5 14.5 0.9 27 9.1 E 22 32 12 17 1019.0 1017.3 0.0
16/08:00am 19.3 13.6 0.8 29 8.5 E 20 32 11 17 1018.4 1016.7 0.0
16/07:30am 18.3 12.7 0.0 29 8.2 E 19 30 10 16 1017.9 1016.2 0.0
16/07:00am 17.8 12.5 -0.9 28 8.2 E 17 24 9 13 1017.7 1016.0 0.0
16/06:30am 17.3 11.8 -1.9 27 8.2 E 17 22 9 12 1017.4 1015.7 0.0
16/06:00am 17.2 12.0 -2.4 26 8.3 E 15 22 8 12 1017.4 1015.7 0.0
16/05:30am 17.3 11.7 -2.9 25 8.5 E 17 22 9 12 1017.5 1015.8 0.0
16/05:00am 17.4 11.7 -3.4 24 8.6 E 17 24 9 13 1017.2 1015.5 0.0
16/04:30am 17.5 12.2 -3.3 24 8.7 E 15 22 8 12 1016.8 1015.1 0.0
16/04:00am 17.9 12.2 -3.5 23 8.9 E 17 28 9 15 1016.5 1014.8 0.0
16/03:30am 18.1 12.1 -2.8 24 8.8 E 19 26 10 14 1016.4 1014.7 0.0
16/03:00am 18.0 12.5 -1.8 26 8.5 E 17 26 9 14 1016.3 1014.6 0.0
16/02:30am 17.6 12.7 -0.6 29 8.0 E 15 19 8 10 1016.4 1014.7 0.0
16/02:00am 17.9 13.1 0.1 30 8.0 ESE 15 20 8 11 1016.6 1014.9 0.0
16/01:30am 18.1 13.0 0.7 31 7.9 ESE 17 22 9 12 1016.7 1015.0 0.0
16/01:00am 18.3 14.0 0.9 31 7.9 ESE 13 17 7 9 1016.8 1015.1 0.0
16/12:30am 18.6 13.5 0.7 30 8.2 ESE 17 20 9 11 1016.7 1015.0 0.0
16/12:00am 19.0 14.6 0.6 29 8.4 ESE 13 19 7 10 1017.3 1015.6 0.0
 
Date/Time
WST
Temp
°C
App
Temp
°C
Dew
Point
Rel
Hum
%
Delta-T
°C
Wind Press
QNH
hPa
Press
MSL
hPa
Rain
since 9 am
mm
Dir
 
Spd
km/h
Gust
km/h
Spd
kts
Gust
kts
15/11:30pm 19.5 15.1 0.5 28 8.7 ESE 13 20 7 11 1017.5 1015.8 0.0
15/11:00pm 20.1 15.0 0.5 27 9.0 ESE 17 20 9 11 1017.6 1015.9 0.0
15/10:30pm 20.8 15.7 0.6 26 9.4 ESE 17 24 9 13 1017.7 1016.0 0.0
15/10:00pm 21.2 15.7 0.4 25 9.6 ESE 19 26 10 14 1017.8 1016.1 0.0
15/09:30pm 21.3 15.8 0.5 25 9.6 ESE 19 24 10 13 1018.1 1016.4 0.0
15/09:00pm 21.7 16.6 0.8 25 9.8 SE 17 22 9 12 1018.1 1016.4 0.0
15/08:30pm 21.6 16.9 0.8 25 9.7 SE 15 20 8 11 1018.3 1016.6 0.0
15/08:00pm 22.0 17.6 0.5 24 10.0 SE 13 17 7 9 1018.4 1016.7 0.0
15/07:30pm 22.9 18.6 0.7 23 10.5 ESE 13 17 7 9 1018.4 1016.7 0.0
15/07:00pm 23.8 19.4 0.2 21 11.1 ESE 13 17 7 9 1018.3 1016.6 0.0
15/06:30pm 24.9 20.5 0.4 20 11.7 ESE 13 17 7 9 1018.2 1016.5 0.0
15/06:00pm 25.8 21.3 -0.3 18 12.3 SE 13 17 7 9 1017.9 1016.2 0.0
15/05:30pm 26.8 22.3 -0.3 17 12.9 ESE 13 19 7 10 1017.6 1015.9 0.0
15/05:00pm 27.4 22.2 0.2 17 13.1 ESE 17 28 9 15 1017.5 1015.8 0.0
15/04:30pm 28.2 23.7 0.0 16 13.6 ESE 13 20 7 11 1017.4 1015.7 0.0
15/04:00pm 28.2 24.1 0.0 16 13.6 ESE 11 20 6 11 1017.2 1015.5 0.0
15/03:30pm 27.9 22.7 -0.2 16 13.5 ESE 17 24 9 13 1017.3 1015.6 0.0
15/03:00pm 27.6 23.1 -0.5 16 13.4 ENE 13 22 7 12 1017.5 1015.8 0.0
15/02:30pm 28.0 23.2 -0.1 16 13.6 N 15 20 8 11 1017.9 1016.2 0.0
15/02:00pm 27.9 23.5 0.6 17 13.3 ENE 13 26 7 14 1018.3 1016.6 0.0
15/01:30pm 27.5 22.7 0.3 17 13.2 NE 15 28 8 15 1018.6 1017.0 0.0
15/01:00pm 27.0 21.5 0.7 18 12.8 ENE 19 24 10 13 1019.2 1017.5 0.0
15/12:30pm 26.3 20.7 0.9 19 12.3 ENE 20 24 11 13 1019.6 1017.9 0.0
15/12:00pm 25.9 20.4 0.5 19 12.2 ENE 19 32 10 17 1020.1 1018.4 0.0
15/11:30am 25.8 19.7 0.5 19 12.1 ENE 22 30 12 16 1020.7 1019.1 0.0
15/11:00am 24.3 18.7 -0.1 20 11.4 E 19 32 10 17 1021.4 1019.7 0.0
15/10:30am 23.8 18.3 0.8 22 10.9 E 19 28 10 15 1021.8 1020.2 0.0
15/10:00am 22.9 17.3 0.1 22 10.6 E 19 26 10 14 1022.0 1020.4 0.0
15/09:30am 21.7 16.0 0.3 24 9.9 E 20 28 11 15 1022.0 1020.4 0.0
15/09:00am 20.8 14.7 0.6 26 9.3 E 22 32 12 17 1022.2 1020.6 0.0
15/08:30am 20.0 14.3 0.5 27 9.0 E 20 30 11 16 1022.3 1020.7 0.0
15/08:00am 18.5 12.4 0.2 29 8.2 E 22 30 12 16 1022.4 1020.8 0.0
15/07:30am 17.2 12.0 -0.1 31 7.7 E 17 28 9 15 1022.2 1020.6 0.0
15/07:00am 15.8 11.3 -0.4 33 7.0 ESE 13 17 7 9 1022.0 1020.4 0.0
15/06:30am 13.7 9.9 -1.1 36 6.2 SE 9 11 5 6 1021.7 1020.0 0.0
15/06:00am 12.5 8.7 -0.7 40 5.5 SE 9 11 5 6 1021.1 1019.4 0.0
15/05:30am 12.9 9.0 -1.4 37 5.9 SE 9 11 5 6 1020.8 1019.2 0.0
15/05:00am 13.8 10.0 -1.0 36 6.2 SE 9 11 5 6 1020.7 1019.1 0.0
15/04:30am 14.5 9.9 -1.2 34 6.6 E 13 15 7 8 1020.2 1018.6 0.0
15/04:00am 15.8 11.2 -0.8 32 7.1 E 13 19 7 10 1020.0 1018.3 0.0
15/03:30am 16.4 11.1 -0.8 31 7.5 ESE 17 24 9 13 1019.9 1018.2 0.0
15/03:00am 16.6 11.4 -0.1 32 7.3 E 17 22 9 12 1019.9 1018.2 0.0
15/02:30am 17.0 11.6 1.0 34 7.2 ESE 19 24 10 13 1019.8 1018.1 0.0
15/02:00am 16.8 11.8 1.3 35 7.0 SE 17 20 9 11 1019.8 1018.1 0.0
15/01:30am 17.2 12.9 1.2 34 7.3 ESE 13 17 7 9 1020.2 1018.6 0.0
15/01:00am 17.9 12.9 1.4 33 7.6 SE 17 26 9 14 1020.1 1018.4 0.0
15/12:30am 18.4 14.2 1.9 33 7.7 ESE 13 20 7 11 1020.3 1018.7 0.0
15/12:00am 18.8 13.9 1.8 32 7.9 SE 17 20 9 11 1020.4 1018.8 0.0
 
Date/Time
WST
Temp
°C
App
Temp
°C
Dew
Point
Rel
Hum
%
Delta-T
°C
Wind Press
QNH
hPa
Press
MSL
hPa
Rain
since 9 am
mm
Dir
 
Spd
km/h
Gust
km/h
Spd
kts
Gust
kts
14/11:30pm 19.5 14.7 2.4 32 8.1 SSE 17 24 9 13 1020.3 1018.7 0.0
14/11:00pm 20.0 14.6 2.4 31 8.4 SE 20 26 11 14 1020.2 1018.6 0.0
14/10:30pm 20.6 15.4 2.4 30 8.7 SSE 19 26 10 14 1020.2 1018.6 0.0
14/10:00pm 21.3 16.0 2.1 28 9.2 SE 19 24 10 13 1020.2 1018.6 0.0
14/09:30pm 21.6 16.2 2.3 28 9.3 SSE 20 28 11 15 1020.2 1018.6 0.0
14/09:00pm 22.0 16.8 2.2 27 9.5 SE 19 24 10 13 1020.4 1018.8 0.0
14/08:30pm 22.8 16.6 2.3 26 10.0 SSE 24 33 13 18 1020.5 1018.9 0.0
14/08:00pm 23.4 17.9 1.7 24 10.4 SSE 20 30 11 16 1020.4 1018.8 0.0
14/07:30pm 24.3 19.0 -0.8 19 11.6 S 17 24 9 13 1020.0 1018.3 0.0
14/07:00pm 24.7 19.4 -0.4 19 11.7 S 17 22 9 12 1019.6 1017.9 0.0
14/06:30pm 25.4 21.7 0.1 19 12.0 S 9 13 5 7 1019.1 1017.4 0.0
14/06:00pm 26.5 22.7 -0.5 17 12.8 S 9 13 5 7 1018.8 1017.2 0.0
14/05:30pm 27.5 23.0 -0.5 16 13.4 SSW 13 17 7 9 1018.6 1017.0 0.0
14/05:00pm 28.1 23.3 -0.1 16 13.6 S 15 19 8 10 1018.4 1016.7 0.0
14/04:30pm 28.5 24.1 0.3 16 13.7 S 13 19 7 10 1018.1 1016.4 0.0
14/04:00pm 28.6 24.1 -0.5 15 14.0 S 13 20 7 11 1017.9 1016.2 0.0
14/03:30pm 28.5 22.6 -0.6 15 14.0 SW 20 26 11 14 1018.0 1016.3 0.0
14/03:00pm 28.9 24.4 -0.3 15 14.1 SSW 13 20 7 11 1018.0 1016.3 0.0
14/02:30pm 28.6 23.3 -0.5 15 14.0 S 17 26 9 14 1018.1 1016.4 0.0
14/02:00pm 29.7 23.8 -0.6 14 14.6 WSW 20 28 11 15 1018.1 1016.4 0.0
14/01:30pm 28.2 24.1 0.0 16 13.6 W 11 20 6 11 1018.3 1016.6 0.0
14/01:00pm 28.6 24.6 0.3 16 13.8 S 11 17 6 9 1018.8 1017.2 0.0
14/12:30pm 27.5 23.5 0.3 17 13.2 WNW 11 17 6 9 1019.3 1017.6 0.0
14/12:00pm 26.9 23.3 0.6 18 12.7 S 9 13 5 7 1019.6 1017.9 0.0
14/11:30am 25.9 22.4 1.2 20 12.0 SE 9 17 5 9 1020.1 1018.4 0.0
14/11:00am 25.7 21.5 1.8 21 11.7 SSE 13 17 7 9 1020.6 1019.0 0.0
14/10:30am 25.1 20.6 1.9 22 11.4 SE 15 24 8 13 1020.8 1019.2 0.0
14/10:00am 23.8 19.0 2.6 25 10.4 ESE 17 22 9 12 1021.1 1019.4 0.0
14/09:30am 23.0 18.7 3.0 27 9.9 SE 15 20 8 11 1021.4 1019.7 0.0
14/09:00am 21.3 16.9 2.6 29 9.0 E 15 24 8 13 1021.3 1019.6 -
14/08:30am 20.5 15.7 2.8 31 8.5 ESE 17 26 9 14 1021.0 1019.3 -
14/08:00am 18.6 13.3 2.0 33 7.7 SE 19 26 10 14 1020.8 1019.2 -
14/07:30am 17.0 11.6 1.4 35 7.1 SE 19 28 10 15 1020.5 1018.9 -
14/07:00am 16.1 11.0 1.0 36 6.8 SSE 17 26 9 14 1020.0 1018.3 -
14/06:30am 14.2 10.4 1.5 42 5.7 SSE 11 17 6 9 1020.2 1018.6 -
14/06:00am 13.4 10.3 1.4 44 5.3 S 7 9 4 5 1020.0 1018.3 -
14/05:30am 14.3 10.9 1.6 42 5.7 S 9 13 5 7 1020.0 1018.3 -
14/05:00am 15.0 10.8 1.5 40 6.1 S 13 17 7 9 1019.9 1018.2 -
14/04:30am 15.1 10.8 1.3 39 6.2 S 13 15 7 8 1019.6 1017.9 -
14/04:00am 15.6 11.3 1.0 37 6.5 S 13 17 7 9 1019.3 1017.6 -
14/03:30am 16.2 11.5 1.1 36 6.8 S 15 17 8 9 1019.0 1017.3 -
14/03:00am 16.8 11.8 1.3 35 7.0 S 17 22 9 12 1018.8 1017.2 0.0
14/02:30am 17.2 12.2 1.2 34 7.3 S 17 20 9 11 1019.1 1017.4 -
14/02:00am 17.8 12.8 1.3 33 7.6 SSE 17 24 9 13 1018.8 1017.2 -
14/01:30am 18.4 13.0 1.4 32 7.9 SSE 19 26 10 14 1019.0 1017.3 -
14/01:00am 18.7 13.8 1.7 32 7.9 S 17 20 9 11 1019.2 1017.5 -
14/12:30am 19.4 14.0 1.4 30 8.4 S 19 24 10 13 1019.2 1017.5 -
14/12:00am 20.2 15.6 1.6 29 8.7 S 15 22 8 12 1019.2 1017.5 -
 
Date/Time
WST
Temp
°C
App
Temp
°C
Dew
Point
Rel
Hum
%
Delta-T
°C
Wind Press
QNH
hPa
Press
MSL
hPa
Rain
since 9 am
mm
Dir
 
Spd
km/h
Gust
km/h
Spd
kts
Gust
kts
13/11:30pm 20.7 15.7 1.6 28 9.0 SSW 17 20 9 11 1019.1 1017.4 -
13/11:00pm 20.7 16.0 1.1 27 9.1 SSW 15 17 8 9 1019.1 1017.4 -
13/10:30pm 20.9 16.9 0.7 26 9.4 SSW 11 13 6 7 1019.2 1017.5 -
13/10:00pm 22.0 17.6 0.5 24 10.0 S 13 17 7 9 1019.2 1017.5 -
13/09:30pm 22.7 17.9 0.5 23 10.4 SSW 15 19 8 10 1019.2 1017.5 -
13/09:00pm 23.4 18.6 0.5 22 10.8 S 15 20 8 11 1019.2 1017.5 -
13/08:30pm 23.7 18.9 0.1 21 11.1 S 15 20 8 11 1019.1 1017.4 -
13/08:00pm 24.3 19.4 -0.8 19 11.6 SSW 15 20 8 11 1018.7 1017.1 -
13/07:30pm 24.7 20.0 -2.0 17 12.1 WSW 13 15 7 8 1018.4 1016.7 0.0
13/07:00pm 25.4 21.1 -1.4 17 12.4 WSW 11 15 6 8 1018.0 1016.3 0.0
13/06:30pm 27.0 22.3 -1.8 15 13.4 WSW 13 17 7 9 1017.8 1016.1 0.0
13/06:00pm 28.2 22.7 -1.8 14 14.0 W 17 26 9 14 1017.5 1015.8 0.0
13/05:30pm 29.4 23.4 -2.9 12 15.0 W 19 26 10 14 1017.2 1015.5 0.0
13/05:00pm 30.0 23.1 -2.5 12 15.2 W 24 33 13 18 1017.1 1015.4 0.0
13/04:30pm 30.4 23.6 -2.2 12 15.4 WNW 24 46 13 25 1016.7 1015.0 0.0
13/04:00pm 30.6 23.0 -2.0 12 15.5 W 28 44 15 24 1016.7 1015.0 0.0
13/03:30pm 31.2 25.4 -1.5 12 15.7 WNW 19 30 10 16 1016.7 1015.0 0.0

Other Formats:

Comma delimited format used in spreadsheet applications
http://www.bom.gov.au/fwo/IDW60801/IDW60801.99434.axf

JavaScript Object Notation format (JSON) in row-major order
http://www.bom.gov.au/fwo/IDW60801/IDW60801.99434.json